createdAt,value
2022-08-18T00:00:12.996Z,100335.81
2022-08-18T00:01:15.946Z,100335.01
2022-08-18T00:02:18.513Z,100329.70
2022-08-18T00:03:53.549Z,100338.62
2022-08-18T00:04:35.477Z,100329.78
2022-08-18T00:05:27.829Z,100333.38
2022-08-18T00:06:31.870Z,100328.08
2022-08-18T00:07:33.731Z,100327.16
2022-08-18T00:08:38.530Z,100328.97
2022-08-18T00:09:39.310Z,100335.13
2022-08-18T00:10:41.566Z,100328.12
2022-08-18T00:11:43.497Z,100331.70
2022-08-18T00:12:45.421Z,100328.27
2022-08-18T00:13:47.328Z,100330.92
2022-08-18T00:14:49.214Z,100330.04
2022-08-18T00:15:51.093Z,100329.19
2022-08-18T00:16:53.151Z,100330.11
2022-08-18T00:17:54.989Z,100329.26
2022-08-18T00:18:56.859Z,100335.48
2022-08-18T00:19:58.729Z,100338.14
2022-08-18T00:21:00.846Z,100333.79
2022-08-18T00:22:02.763Z,100331.14
2022-08-18T00:23:04.747Z,100341.75
2022-08-18T00:24:06.616Z,100334.71
2022-08-18T00:25:08.489Z,100336.48
2022-08-18T00:26:10.761Z,100340.94
2022-08-18T00:27:12.724Z,100329.48
2022-08-18T00:28:14.600Z,100341.93
2022-08-18T00:29:16.492Z,100337.58
2022-08-18T00:30:20.088Z,100336.70
2022-08-18T00:31:21.954Z,100335.85
2022-08-18T00:32:23.867Z,100343.80
2022-08-18T00:33:25.760Z,100343.88
2022-08-18T00:34:27.627Z,100338.64
2022-08-18T00:35:31.337Z,100334.27
2022-08-18T00:36:35.020Z,100334.27
2022-08-18T00:37:36.949Z,100329.84
2022-08-18T00:38:38.842Z,100329.91
2022-08-18T00:39:46.406Z,100330.77
2022-08-18T00:40:44.502Z,100328.19
2022-08-18T00:41:46.424Z,100333.48
2022-08-18T00:42:48.347Z,100332.64
2022-08-18T00:43:50.224Z,100325.60
2022-08-18T00:44:52.105Z,100334.48
2022-08-18T00:45:54.489Z,100334.48
2022-08-18T00:46:56.476Z,100330.20
2022-08-18T00:47:58.730Z,100331.13
2022-08-18T00:49:00.874Z,100331.97
2022-08-18T00:50:02.760Z,100334.70
2022-08-18T00:51:04.638Z,100332.05
2022-08-18T00:52:06.534Z,100326.81
2022-08-18T00:53:08.438Z,100328.61
2022-08-18T00:54:10.301Z,100328.69
2022-08-18T00:55:12.183Z,100335.76
2022-08-18T00:56:14.377Z,100320.73
2022-08-18T00:57:16.336Z,100329.53
2022-08-18T00:58:18.264Z,100321.66
2022-08-18T00:59:20.133Z,100324.30
2022-08-18T01:00:22.217Z,100324.30
2022-08-18T01:01:24.135Z,100326.10
2022-08-18T01:02:25.981Z,100322.57
2022-08-18T01:03:28.030Z,100330.53
2022-08-18T01:04:29.897Z,100327.88
2022-08-18T01:05:31.791Z,100327.03
2022-08-18T01:06:35.196Z,100328.83
2022-08-18T01:07:37.086Z,100324.38
2022-08-18T01:08:39.081Z,100329.67
2022-08-18T01:09:42.764Z,100327.95
2022-08-18T01:10:46.481Z,100325.36
2022-08-18T01:11:48.310Z,100329.75
2022-08-18T01:12:50.165Z,100328.90
2022-08-18T01:13:52.074Z,100328.97
2022-08-18T01:14:53.892Z,100324.59
2022-08-18T01:15:55.723Z,100326.39
2022-08-18T01:16:58.086Z,100332.61
2022-08-18T01:17:59.906Z,100320.28
2022-08-18T01:19:01.798Z,100319.36
2022-08-18T01:20:03.782Z,100321.23
2022-08-18T01:21:05.734Z,100315.05
2022-08-18T01:22:07.591Z,100323.88
2022-08-18T01:23:09.430Z,100317.70
2022-08-18T01:24:11.309Z,100322.15
2022-08-18T01:25:13.164Z,100321.30
2022-08-18T01:26:16.722Z,100315.12
2022-08-18T01:27:18.825Z,100316.07
2022-08-18T01:28:20.831Z,100315.19
2022-08-18T01:29:22.727Z,100316.98
2022-08-18T01:30:26.375Z,100319.64
2022-08-18T01:31:28.202Z,100321.44
2022-08-18T01:32:30.031Z,100310.84
2022-08-18T01:33:31.867Z,100323.20
2022-08-18T01:34:33.753Z,100317.06
2022-08-18T01:35:41.630Z,100317.12
2022-08-18T01:36:39.349Z,100316.21
2022-08-18T01:37:41.188Z,100311.83
2022-08-18T01:38:43.031Z,100314.48
2022-08-18T01:41:21.186Z,100303.09
2022-08-18T01:41:24.376Z,100312.75
2022-08-18T01:41:52.394Z,100315.47
2022-08-18T01:42:54.258Z,100310.17
2022-08-18T01:43:56.128Z,100306.67
2022-08-18T01:44:58.009Z,100311.97
2022-08-18T01:45:59.836Z,100317.27
2022-08-18T01:47:01.689Z,100310.23
2022-08-18T01:48:03.891Z,100310.23
2022-08-18T01:49:06.072Z,100315.61
2022-08-18T01:50:08.457Z,100321.76
2022-08-18T01:51:11.919Z,100317.41
2022-08-18T01:52:13.761Z,100326.21
2022-08-18T01:53:15.617Z,100312.95
2022-08-18T01:54:17.501Z,100324.48
2022-08-18T01:55:19.374Z,100324.48
2022-08-18T01:56:21.822Z,100326.28
2022-08-18T01:57:23.668Z,100323.62
2022-08-18T01:58:28.807Z,100326.28
2022-08-18T01:59:29.234Z,100329.84
2022-08-18T02:00:31.218Z,100317.55
2022-08-18T02:01:37.031Z,100322.84
2022-08-18T02:02:36.712Z,100326.42
2022-08-18T02:03:38.539Z,100325.57
2022-08-18T02:04:40.376Z,100318.54
2022-08-18T02:05:42.268Z,100321.19
2022-08-18T02:06:46.521Z,100322.98
2022-08-18T02:07:47.888Z,100325.70
2022-08-18T02:08:53.578Z,100323.91
2022-08-18T02:09:55.152Z,100322.11
2022-08-18T02:10:57.333Z,100313.38
2022-08-18T02:11:59.180Z,100317.83
2022-08-18T02:13:01.019Z,100315.17
2022-08-18T02:14:02.846Z,100318.75
2022-08-18T02:15:06.591Z,100316.09
2022-08-18T02:16:08.787Z,100309.95
2022-08-18T02:18:12.929Z,100324.41
2022-08-18T02:19:14.794Z,100315.25
2022-08-18T02:20:16.995Z,100318.75
2022-08-18T02:21:19.367Z,100312.59
2022-08-18T02:22:21.321Z,100322.31
2022-08-18T02:23:23.184Z,100317.02
2022-08-18T02:24:25.046Z,100323.23
2022-08-18T02:25:26.927Z,100331.19
2022-08-18T02:26:28.977Z,100325.88
2022-08-18T02:27:30.846Z,100324.16
2022-08-18T02:28:34.550Z,100327.66
2022-08-18T02:29:36.437Z,100322.42
2022-08-18T02:30:38.483Z,100321.50
2022-08-18T02:31:40.395Z,100325.95
2022-08-18T02:32:42.276Z,100323.30
2022-08-18T02:33:51.922Z,100321.50
2022-08-18T02:34:47.857Z,100327.72
2022-08-18T02:35:49.732Z,100322.42
2022-08-18T02:36:51.757Z,100325.07
2022-08-18T02:37:54.636Z,100326.87
2022-08-18T02:38:59.893Z,100325.14
2022-08-18T02:40:00.406Z,100326.94
2022-08-18T02:41:02.310Z,100326.02
2022-08-18T02:42:04.219Z,100319.84
2022-08-18T02:43:06.089Z,100325.14
2022-08-18T02:44:07.961Z,100326.09
2022-08-18T02:45:09.827Z,100326.94
2022-08-18T02:46:12.843Z,100331.39
2022-08-18T02:47:14.776Z,100334.03
2022-08-18T02:48:17.059Z,100334.03
2022-08-18T02:49:18.931Z,100325.20
2022-08-18T02:50:22.332Z,100326.16
2022-08-18T02:51:26.043Z,100334.95
2022-08-18T02:52:27.976Z,100322.56
2022-08-18T02:53:29.828Z,100321.70
2022-08-18T02:54:31.721Z,100328.73
2022-08-18T02:55:33.595Z,100319.91
2022-08-18T02:56:41.133Z,100331.39
2022-08-18T02:57:39.322Z,100327.86
2022-08-18T02:58:41.200Z,100327.86
2022-08-18T02:59:43.090Z,100334.95
2022-08-18T03:00:46.884Z,100327.01
2022-08-18T03:01:48.890Z,100335.81
2022-08-18T03:02:50.902Z,100333.16
2022-08-18T03:03:52.782Z,100330.50
2022-08-18T03:04:54.687Z,100339.34
2022-08-18T03:05:56.549Z,100334.89
2022-08-18T03:06:58.553Z,100337.53
2022-08-18T03:08:00.982Z,100337.53
2022-08-18T03:09:02.863Z,100336.63
2022-08-18T03:10:31.939Z,100337.47
2022-08-18T03:11:08.535Z,100333.90
2022-08-18T03:12:10.419Z,100337.40
2022-08-18T03:13:12.330Z,100335.60
2022-08-18T03:14:14.211Z,100340.86
2022-08-18T03:15:16.076Z,100340.86
2022-08-18T03:16:18.572Z,100335.50
2022-08-18T03:17:20.668Z,100335.50
2022-08-18T03:18:22.879Z,100337.23
2022-08-18T03:19:24.775Z,100336.31
2022-08-18T03:20:31.078Z,100335.36
2022-08-18T03:21:31.856Z,100334.51
2022-08-18T03:22:33.828Z,100333.52
2022-08-18T03:23:36.157Z,100332.57
2022-08-18T03:24:38.025Z,100325.50
2022-08-18T03:25:39.884Z,100325.50
2022-08-18T03:26:41.882Z,100328.93
2022-08-18T03:27:43.848Z,100329.78
2022-08-18T03:28:45.789Z,100331.58
2022-08-18T03:29:47.681Z,100323.56
2022-08-18T03:30:49.656Z,100330.66
2022-08-18T03:31:51.547Z,100332.36
2022-08-18T03:32:53.464Z,100337.62
2022-08-18T03:33:55.362Z,100339.33
2022-08-18T03:34:59.051Z,100334.91
2022-08-18T03:36:00.928Z,100331.30
2022-08-18T03:37:02.812Z,100331.16
2022-08-18T03:38:04.692Z,100340.00
2022-08-18T03:39:06.610Z,100336.46
2022-08-18T03:40:08.909Z,100339.05
2022-08-18T03:41:11.040Z,100333.67
2022-08-18T03:42:13.528Z,100337.20
2022-08-18T03:43:38.893Z,100337.13
2022-08-18T03:44:19.253Z,100331.77
2022-08-18T03:45:21.110Z,100336.99
2022-08-18T03:46:23.701Z,100341.34
2022-08-18T03:47:25.597Z,100342.23
2022-08-18T03:48:27.497Z,100343.00
2022-08-18T03:49:29.408Z,100336.78
2022-08-18T03:50:33.098Z,100344.66
2022-08-18T03:51:34.998Z,100343.71
2022-08-18T03:52:36.865Z,100338.37
2022-08-18T03:53:40.542Z,100348.97
2022-08-18T03:54:42.476Z,100340.00
2022-08-18T03:55:44.350Z,100346.18
2022-08-18T03:56:46.327Z,100342.58
2022-08-18T03:57:48.195Z,100341.59
2022-08-18T03:58:50.093Z,100345.09
2022-08-18T03:59:52.027Z,100341.52
2022-08-18T04:00:54.261Z,100342.29
2022-08-18T04:01:56.317Z,100347.59
2022-08-18T04:02:58.196Z,100344.02
2022-08-18T04:04:00.102Z,100340.45
2022-08-18T04:05:02.016Z,100343.95
2022-08-18T04:06:08.676Z,100341.23
2022-08-18T04:07:09.603Z,100344.73
2022-08-18T04:08:11.491Z,100341.16
2022-08-18T04:09:13.366Z,100342.89
2022-08-18T04:10:19.487Z,100344.58
2022-08-18T04:11:19.492Z,100347.23
2022-08-18T04:12:21.362Z,100350.77
2022-08-18T04:13:23.250Z,100342.74
2022-08-18T04:14:25.133Z,100348.82
2022-08-18T04:15:27.061Z,100343.52
2022-08-18T04:16:29.050Z,100344.40
2022-08-18T04:17:30.929Z,100342.59
2022-08-18T04:18:32.807Z,100347.83
2022-08-18T04:19:34.736Z,100349.56
2022-08-18T04:20:37.774Z,100348.67
2022-08-18T04:21:41.462Z,100351.25
2022-08-18T04:22:43.956Z,100352.98
2022-08-18T04:23:45.928Z,100348.45
2022-08-18T04:24:47.820Z,100353.69
2022-08-18T04:25:52.137Z,100353.69
2022-08-18T04:26:54.334Z,100356.34
2022-08-18T04:27:56.206Z,100357.19
2022-08-18T04:28:58.100Z,100353.58
2022-08-18T04:29:59.938Z,100351.81
2022-08-18T04:31:01.818Z,100353.50
2022-08-18T04:32:05.471Z,100352.58
2022-08-18T04:33:07.304Z,100354.23
2022-08-18T04:34:09.150Z,100353.28
2022-08-18T04:35:14.045Z,100355.02
2022-08-18T04:36:18.757Z,100355.80
2022-08-18T04:37:18.662Z,100353.14
2022-08-18T04:38:20.503Z,100356.60
2022-08-18T04:39:22.335Z,100350.37
2022-08-18T04:40:25.431Z,100357.38
2022-08-18T04:41:27.947Z,100355.60
2022-08-18T04:42:29.778Z,100353.80
2022-08-18T04:43:31.928Z,100359.88
2022-08-18T04:44:33.761Z,100351.92
2022-08-18T04:45:35.601Z,100354.50
2022-08-18T04:46:38.897Z,100352.73
2022-08-18T04:47:40.727Z,100353.50
2022-08-18T04:48:43.597Z,100349.05
2022-08-18T04:49:45.432Z,100349.92
2022-08-18T04:50:47.295Z,100346.31
2022-08-18T04:52:36.635Z,100350.70
2022-08-18T04:52:52.854Z,100357.73
2022-08-18T04:53:54.694Z,100353.28
2022-08-18T04:54:56.538Z,100353.20
2022-08-18T04:55:58.425Z,100352.28
2022-08-18T04:57:01.028Z,100353.98
2022-08-18T04:58:02.876Z,100344.17
2022-08-18T04:59:04.720Z,100338.71
2022-08-18T05:00:08.084Z,100338.71
2022-08-18T05:01:10.035Z,100354.56
2022-08-18T05:02:14.783Z,100350.02
2022-08-18T05:03:15.780Z,100355.25
2022-08-18T05:04:17.647Z,100352.53
2022-08-18T05:05:19.480Z,100350.75
2022-08-18T05:06:21.924Z,100349.72
2022-08-18T05:07:23.830Z,100347.95
2022-08-18T05:08:25.674Z,100351.38
2022-08-18T05:09:28.559Z,100352.15
2022-08-18T05:10:32.111Z,100357.45
2022-08-18T05:11:33.956Z,100353.80
2022-08-18T05:12:35.841Z,100354.65
2022-08-18T05:13:37.686Z,100345.76
2022-08-18T05:14:40.946Z,100350.14
2022-08-18T05:16:09.037Z,100361.53
2022-08-18T05:16:48.727Z,100361.46
2022-08-18T05:17:51.035Z,100349.06
2022-08-18T05:18:53.016Z,100354.30
2022-08-18T05:19:54.852Z,100351.56
2022-08-18T05:20:57.398Z,100361.23
2022-08-18T05:22:03.032Z,100353.27
2022-08-18T05:23:04.825Z,100360.23
2022-08-18T05:24:06.669Z,100357.45
2022-08-18T05:25:08.513Z,100358.30
2022-08-18T05:26:10.961Z,100352.98
2022-08-18T05:27:12.794Z,100353.80
2022-08-18T05:28:14.700Z,100354.56
2022-08-18T05:29:19.036Z,100361.60
2022-08-18T05:30:22.688Z,100355.33
2022-08-18T05:31:24.542Z,100357.06
2022-08-18T05:32:30.461Z,100362.30
2022-08-18T05:33:30.074Z,100355.17
2022-08-18T05:34:32.110Z,100356.83
2022-08-18T05:35:33.960Z,100356.75
2022-08-18T05:36:37.121Z,100356.59
2022-08-18T05:37:39.055Z,100356.59
2022-08-18T05:38:40.942Z,100359.25
2022-08-18T05:39:42.865Z,100350.52
2022-08-18T05:40:44.825Z,100360.83
2022-08-18T05:41:46.660Z,100352.77
2022-08-18T05:42:48.554Z,100360.66
2022-08-18T05:43:51.756Z,100359.73
2022-08-18T05:44:54.101Z,100357.93
2022-08-18T05:45:55.949Z,100355.19
2022-08-18T05:46:57.887Z,100353.38
2022-08-18T05:47:59.733Z,100355.88
2022-08-18T05:49:01.623Z,100352.30
2022-08-18T05:50:03.578Z,100353.06
2022-08-18T05:51:05.407Z,100350.36
2022-08-18T05:52:07.247Z,100350.28
2022-08-18T05:53:13.183Z,100353.79
2022-08-18T05:54:12.949Z,100348.31
2022-08-18T05:55:14.787Z,100346.50
2022-08-18T05:56:17.157Z,100350.81
2022-08-18T05:57:18.994Z,100349.88
2022-08-18T05:58:20.838Z,100350.65
2022-08-18T05:59:22.728Z,100352.37
2022-08-18T06:00:25.384Z,100351.34
2022-08-18T06:01:27.523Z,100354.80
2022-08-18T06:02:29.398Z,100360.03
2022-08-18T06:03:31.372Z,100359.87
2022-08-18T06:04:34.921Z,100358.86
2022-08-18T06:05:36.752Z,100358.86
2022-08-18T06:06:38.693Z,100360.47
2022-08-18T06:07:40.539Z,100361.30
2022-08-18T06:08:42.570Z,100360.26
2022-08-18T06:09:44.457Z,100361.98
2022-08-18T06:10:46.408Z,100359.25
2022-08-18T06:11:48.245Z,100357.36
2022-08-18T06:12:50.084Z,100357.27
2022-08-18T06:13:52.387Z,100360.73
2022-08-18T06:14:55.652Z,100356.26
2022-08-18T06:15:57.495Z,100353.52
2022-08-18T06:17:05.489Z,100353.44
2022-08-18T06:18:07.400Z,100359.55
2022-08-18T06:19:09.247Z,100360.32
2022-08-18T06:20:11.912Z,100362.05
2022-08-18T06:21:13.899Z,100363.66
2022-08-18T06:22:15.747Z,100358.26
2022-08-18T06:23:17.983Z,100360.84
2022-08-18T06:24:20.172Z,100353.66
2022-08-18T06:25:22.049Z,100352.69
2022-08-18T06:26:25.609Z,100365.81
2022-08-18T06:27:27.442Z,100362.23
2022-08-18T06:28:29.289Z,100358.64
2022-08-18T06:29:31.143Z,100351.59
2022-08-18T06:30:34.026Z,100351.59
2022-08-18T06:31:35.778Z,100357.42
2022-08-18T06:32:37.623Z,100360.03
2022-08-18T06:33:39.467Z,100361.64
2022-08-18T06:34:41.292Z,100355.39
2022-08-18T06:35:43.173Z,100360.62
2022-08-18T06:36:45.125Z,100357.88
2022-08-18T06:37:46.966Z,100355.13
2022-08-18T06:38:48.805Z,100355.05
2022-08-18T06:39:50.766Z,100354.12
2022-08-18T06:40:52.770Z,100355.81
2022-08-18T06:41:54.613Z,100355.73
2022-08-18T06:42:56.647Z,100353.86
2022-08-18T06:44:00.453Z,100357.28
2022-08-18T06:45:02.339Z,100357.20
2022-08-18T06:46:04.575Z,100354.54
2022-08-18T06:47:06.668Z,100352.72
2022-08-18T06:48:15.711Z,100350.86
2022-08-18T06:49:12.221Z,100349.95
2022-08-18T06:50:14.924Z,100354.31
2022-08-18T06:51:16.846Z,100355.11
2022-08-18T06:52:18.721Z,100352.36
2022-08-18T06:53:28.063Z,100356.72
2022-08-18T06:54:24.293Z,100348.65
2022-08-18T06:55:26.283Z,100353.88
2022-08-18T06:56:30.015Z,100354.67
2022-08-18T06:57:31.888Z,100356.38
2022-08-18T06:58:33.784Z,100352.78
2022-08-18T06:59:35.653Z,100353.62
2022-08-18T07:00:37.715Z,100357.16
2022-08-18T07:01:39.755Z,100355.27
2022-08-18T07:02:41.655Z,100357.92
2022-08-18T07:03:43.537Z,100356.02
2022-08-18T07:04:45.476Z,100355.09
2022-08-18T07:05:49.165Z,100355.85
2022-08-18T07:06:51.186Z,100358.52
2022-08-18T07:07:53.509Z,100352.25
2022-08-18T07:08:55.585Z,100352.17
2022-08-18T07:09:57.572Z,100345.06
2022-08-18T07:10:59.639Z,100355.63
2022-08-18T07:12:01.567Z,100350.20
2022-08-18T07:13:03.460Z,100356.30
2022-08-18T07:14:15.953Z,100345.64
2022-08-18T07:15:09.023Z,100349.06
2022-08-18T07:16:11.410Z,100352.61
2022-08-18T07:17:15.354Z,100339.21
2022-08-18T07:18:17.239Z,100343.56
2022-08-18T07:19:19.108Z,100345.30
2022-08-18T07:20:22.287Z,100345.12
2022-08-18T07:21:24.265Z,100345.03
2022-08-18T07:22:38.849Z,100349.41
2022-08-18T07:23:29.848Z,100349.33
2022-08-18T07:24:31.727Z,100345.70
2022-08-18T07:25:33.581Z,100350.00
2022-08-18T07:26:37.048Z,100347.25
2022-08-18T07:27:38.939Z,100344.49
2022-08-18T07:28:40.820Z,100350.61
2022-08-18T07:29:42.698Z,100340.72
2022-08-18T07:31:06.470Z,100341.47
2022-08-18T07:31:50.162Z,100343.20
2022-08-18T07:32:52.059Z,100344.83
2022-08-18T07:33:53.929Z,100344.75
2022-08-18T07:34:55.782Z,100341.99
2022-08-18T07:35:57.641Z,100349.98
2022-08-18T07:36:59.874Z,100345.44
2022-08-18T07:38:13.778Z,100348.02
2022-08-18T07:39:05.497Z,100346.99
2022-08-18T07:40:08.330Z,100342.42
2022-08-18T07:41:10.178Z,100347.56
2022-08-18T07:42:12.102Z,100346.63
2022-08-18T07:43:15.916Z,100348.27
2022-08-18T07:44:17.999Z,100343.78
2022-08-18T07:45:19.878Z,100340.09
2022-08-18T07:46:23.932Z,100341.69
2022-08-18T07:47:25.775Z,100335.42
2022-08-18T07:48:38.301Z,100332.67
2022-08-18T07:49:31.343Z,100336.97
2022-08-18T07:50:58.578Z,100337.72
2022-08-18T07:51:37.809Z,100326.12
2022-08-18T07:52:46.899Z,100330.51
2022-08-18T07:53:43.385Z,100330.42
2022-08-18T07:54:49.837Z,100338.32
2022-08-18T07:55:50.811Z,100334.69
2022-08-18T07:56:52.870Z,100326.59
2022-08-18T07:57:54.911Z,100327.47
2022-08-18T07:58:56.965Z,100332.62
2022-08-18T07:59:58.836Z,100326.41
2022-08-18T08:01:00.890Z,100325.47
2022-08-18T08:02:02.892Z,100330.70
2022-08-18T08:03:06.130Z,100325.37
2022-08-18T08:04:08.037Z,100324.34
2022-08-18T08:05:11.332Z,100328.70
2022-08-18T08:06:15.021Z,100322.43
2022-08-18T08:07:25.406Z,100318.92
2022-08-18T08:08:25.053Z,100325.09
2022-08-18T08:09:24.359Z,100321.49
2022-08-18T08:10:26.752Z,100317.01
2022-08-18T08:11:28.622Z,100318.73
2022-08-18T08:12:30.657Z,100313.40
2022-08-18T08:13:54.056Z,100314.25
2022-08-18T08:14:36.369Z,100314.25
2022-08-18T08:15:38.237Z,100323.09
2022-08-18T08:16:40.457Z,100318.64
2022-08-18T08:17:42.312Z,100318.64
2022-08-18T08:18:44.182Z,100321.30
2022-08-18T08:20:02.175Z,100313.31
2022-08-18T08:20:49.997Z,100314.25
2022-08-18T08:21:52.791Z,100315.97
2022-08-18T08:22:55.149Z,100322.15
2022-08-18T08:23:57.037Z,100316.73
2022-08-18T08:24:58.933Z,100322.94
2022-08-18T08:26:00.798Z,100324.63
2022-08-18T08:27:02.681Z,100315.69
2022-08-18T08:28:04.554Z,100322.84
2022-08-18T08:29:06.494Z,100320.17
2022-08-18T08:30:09.141Z,100315.97
2022-08-18T08:31:35.526Z,100317.66
2022-08-18T08:32:14.715Z,100320.27
2022-08-18T08:33:16.572Z,100321.96
2022-08-18T08:34:18.433Z,100318.55
2022-08-18T08:35:48.673Z,100323.78
2022-08-18T08:36:25.597Z,100322.94
2022-08-18T08:37:27.455Z,100322.94
2022-08-18T08:38:42.240Z,100322.94
2022-08-18T08:39:33.038Z,100332.63
2022-08-18T08:40:36.128Z,100316.62
2022-08-18T08:41:39.211Z,100307.69
2022-08-18T08:42:41.085Z,100304.28
2022-08-18T08:43:42.942Z,100312.93
2022-08-18T08:44:58.382Z,100315.50
2022-08-18T08:45:48.663Z,100317.23
2022-08-18T08:46:50.834Z,100317.12
2022-08-18T08:47:52.901Z,100315.31
2022-08-18T08:48:54.996Z,100316.25
2022-08-18T08:50:00.749Z,100310.83
2022-08-18T08:51:00.687Z,100317.91
2022-08-18T08:52:02.552Z,100316.97
2022-08-18T08:53:04.414Z,100302.67
2022-08-18T08:54:06.285Z,100311.55
2022-08-18T08:55:08.134Z,100312.39
2022-08-18T08:56:10.726Z,100307.91
2022-08-18T08:57:12.571Z,100304.39
2022-08-18T08:58:14.448Z,100309.62
2022-08-18T08:59:16.303Z,100302.48
2022-08-18T09:00:19.037Z,100302.38
2022-08-18T09:01:20.946Z,100303.27
2022-08-18T09:02:44.687Z,100303.16
2022-08-18T09:03:29.943Z,100303.16
2022-08-18T09:04:30.084Z,100306.68
2022-08-18T09:05:31.921Z,100313.64
2022-08-18T09:06:34.199Z,100313.64
2022-08-18T09:07:38.361Z,100309.06
2022-08-18T09:08:39.698Z,100316.96
2022-08-18T09:09:41.522Z,100317.84
2022-08-18T09:10:43.484Z,100312.41
2022-08-18T09:11:45.360Z,100315.08
2022-08-18T09:12:47.210Z,100322.01
2022-08-18T09:13:49.061Z,100317.55
2022-08-18T09:14:50.916Z,100314.88
2022-08-18T09:15:52.775Z,100320.97
2022-08-18T09:16:54.764Z,100320.97
2022-08-18T09:17:56.622Z,100319.05
2022-08-18T09:18:58.469Z,100317.27
2022-08-18T09:20:00.306Z,100316.28
2022-08-18T09:21:02.144Z,100313.52
2022-08-18T09:22:04.031Z,100313.42
2022-08-18T09:23:06.217Z,100307.24
2022-08-18T09:24:08.047Z,100308.09
2022-08-18T09:25:09.894Z,100305.33
2022-08-18T09:26:12.337Z,100303.54
2022-08-18T09:27:14.265Z,100305.23
2022-08-18T09:28:16.100Z,100312.28
2022-08-18T09:29:17.942Z,100307.80
2022-08-18T09:30:20.948Z,100305.13
2022-08-18T09:31:22.813Z,100308.68
2022-08-18T09:32:24.692Z,100313.07
2022-08-18T09:33:26.517Z,100306.01
2022-08-18T09:34:29.912Z,100306.01
2022-08-18T09:35:31.753Z,100306.01
2022-08-18T09:36:34.201Z,100299.73
2022-08-18T09:37:36.083Z,100303.24
2022-08-18T09:38:39.755Z,100295.24
2022-08-18T09:39:43.168Z,100294.39
2022-08-18T09:41:02.323Z,100293.62
2022-08-18T09:41:49.245Z,100290.95
2022-08-18T09:42:52.214Z,100285.71
2022-08-18T09:43:54.040Z,100283.89
2022-08-18T09:44:55.871Z,100292.09
2022-08-18T09:45:57.734Z,100290.39
2022-08-18T09:47:00.075Z,100286.95
2022-08-18T09:48:01.926Z,100284.37
2022-08-18T09:49:03.969Z,100295.05
2022-08-18T09:50:16.613Z,100291.63
2022-08-18T09:51:12.009Z,100291.63
2022-08-18T09:52:15.370Z,100290.78
2022-08-18T09:53:18.662Z,100297.06
2022-08-18T09:54:21.803Z,100293.55
2022-08-18T09:55:25.243Z,100296.31
2022-08-18T09:56:28.613Z,100290.98
2022-08-18T09:57:30.662Z,100289.25
2022-08-18T09:58:34.352Z,100291.17
2022-08-18T09:59:36.188Z,100292.11
2022-08-18T10:00:39.584Z,100291.36
2022-08-18T10:01:41.473Z,100298.48
2022-08-18T10:02:48.536Z,100283.43
2022-08-18T10:03:47.157Z,100292.41
2022-08-18T10:04:48.999Z,100284.41
2022-08-18T10:05:50.839Z,100286.97
2022-08-18T10:06:53.095Z,100284.31
2022-08-18T10:07:54.921Z,100279.07
2022-08-18T10:08:56.812Z,100286.97
2022-08-18T10:09:58.661Z,100284.31
2022-08-18T10:11:09.116Z,100286.09
2022-08-18T10:12:05.958Z,100284.31
2022-08-18T10:13:09.618Z,100288.77
2022-08-18T10:14:12.624Z,100287.82
2022-08-18T10:15:14.540Z,100292.21
2022-08-18T10:16:19.013Z,100300.12
2022-08-18T10:17:23.693Z,100292.11
2022-08-18T10:18:24.573Z,100303.53
2022-08-18T10:19:39.519Z,100299.92
2022-08-18T10:20:31.313Z,100298.00
2022-08-18T10:21:33.589Z,100297.06
2022-08-18T10:22:35.567Z,100295.14
2022-08-18T10:23:38.442Z,100300.28
2022-08-18T10:24:41.768Z,100296.02
2022-08-18T10:25:44.718Z,100297.42
2022-08-18T10:26:53.995Z,100300.77
2022-08-18T10:27:50.657Z,100304.19
2022-08-18T10:28:52.503Z,100302.40
2022-08-18T10:29:54.382Z,100307.64
2022-08-18T10:31:06.416Z,100306.66
2022-08-18T10:32:00.011Z,100307.44
2022-08-18T10:33:10.776Z,100304.58
2022-08-18T10:35:09.255Z,100312.38
2022-08-18T10:36:12.912Z,100311.41
2022-08-18T10:37:16.927Z,100297.03
2022-08-18T10:38:19.628Z,100304.09
2022-08-18T10:39:22.579Z,100303.02
2022-08-18T10:40:26.609Z,100307.30
2022-08-18T10:41:30.868Z,100302.81
2022-08-18T10:42:32.054Z,100310.59
2022-08-18T10:44:37.537Z,100303.23
2022-08-18T10:45:41.227Z,100304.85
2022-08-18T10:46:46.765Z,100308.36
2022-08-18T10:47:49.026Z,100304.66
2022-08-18T10:48:51.403Z,100308.81
2022-08-18T10:49:53.741Z,100291.85
2022-08-18T10:50:55.714Z,100298.81
2022-08-18T10:52:00.342Z,100300.50
2022-08-18T10:53:23.912Z,100295.16
2022-08-18T10:54:04.847Z,100297.77
2022-08-18T10:55:06.682Z,100288.78
2022-08-18T10:56:12.160Z,100291.34
2022-08-18T10:57:14.109Z,100281.55
2022-08-18T10:58:17.075Z,100284.02
2022-08-18T10:59:18.935Z,100283.03
2022-08-18T11:00:22.301Z,100278.47
2022-08-18T11:01:24.172Z,100272.16
2022-08-18T11:02:26.018Z,100277.39
2022-08-18T11:03:50.064Z,100275.50
2022-08-18T11:04:36.944Z,100273.67
2022-08-18T11:05:37.211Z,100262.05
2022-08-18T11:06:39.168Z,100260.22
2022-08-18T11:07:41.012Z,100253.05
2022-08-18T11:08:44.678Z,100253.05
2022-08-18T11:09:57.228Z,100242.48
2022-08-18T11:11:58.361Z,100236.19
2022-08-18T11:12:59.687Z,100239.80
2022-08-18T11:14:01.747Z,100232.67
2022-08-18T11:15:22.738Z,100236.29
2022-08-18T11:16:10.370Z,100239.91
2022-08-18T11:17:12.298Z,100234.67
2022-08-18T11:18:14.152Z,100236.50
2022-08-18T11:19:16.905Z,100236.50
2022-08-18T11:20:19.393Z,100239.27
2022-08-18T11:21:21.328Z,100238.42
2022-08-18T11:22:32.477Z,100239.38
2022-08-18T11:23:26.904Z,100235.96
2022-08-18T11:24:29.796Z,100240.42
2022-08-18T11:25:31.663Z,100238.73
2022-08-18T11:26:33.853Z,100242.45
2022-08-18T11:27:36.340Z,100240.83
2022-08-18T11:28:44.749Z,100248.84
2022-08-18T11:29:41.912Z,100243.60
2022-08-18T11:30:43.873Z,100241.88
2022-08-18T11:31:45.732Z,100244.55
2022-08-18T11:32:52.142Z,100241.14
2022-08-18T11:33:53.156Z,100255.43
2022-08-18T11:34:55.005Z,100238.57
2022-08-18T11:35:56.890Z,100246.67
2022-08-18T11:36:59.237Z,100238.67
2022-08-18T11:38:01.135Z,100238.77
2022-08-18T11:39:03.205Z,100233.53
2022-08-18T11:40:07.116Z,100236.20
2022-08-18T11:41:12.618Z,100237.16
2022-08-18T11:42:15.679Z,100238.13
2022-08-18T11:43:21.370Z,100242.59
2022-08-18T11:44:22.416Z,100234.69
2022-08-18T11:45:25.022Z,100240.90
2022-08-18T11:46:30.532Z,100240.02
2022-08-18T11:47:31.363Z,100243.67
2022-08-18T11:48:37.621Z,100245.46
2022-08-18T11:49:37.035Z,100243.77
2022-08-18T11:50:39.018Z,100239.38
2022-08-18T11:51:42.682Z,100248.23
2022-08-18T11:52:44.634Z,100242.99
2022-08-18T11:53:49.206Z,100244.81
2022-08-18T11:54:54.356Z,100237.72
2022-08-18T11:55:54.847Z,100239.55